sensor_id;sensor_type;location;lat;lon;timestamp;P1;durP1;ratioP1;P2;durP2;ratioP2
75311;SDS011;63906;55.686;37.532;2023-12-28T00:00:01;2.13;;;1.03;;
75311;SDS011;63906;55.686;37.532;2023-12-28T00:05:02;2.35;;;1.02;;
75311;SDS011;63906;55.686;37.532;2023-12-28T00:10:04;1.92;;;1.00;;
75311;SDS011;63906;55.686;37.532;2023-12-28T00:15:04;3.10;;;1.42;;
75311;SDS011;63906;55.686;37.532;2023-12-28T00:20:05;2.50;;;1.27;;
75311;SDS011;63906;55.686;37.532;2023-12-28T00:25:06;3.90;;;1.50;;
75311;SDS011;63906;55.686;37.532;2023-12-28T00:30:07;1.55;;;1.00;;
75311;SDS011;63906;55.686;37.532;2023-12-28T00:35:07;2.92;;;1.13;;
75311;SDS011;63906;55.686;37.532;2023-12-28T00:40:08;2.77;;;1.57;;
75311;SDS011;63906;55.686;37.532;2023-12-28T00:45:09;1.95;;;1.17;;
75311;SDS011;63906;55.686;37.532;2023-12-28T00:50:10;1.75;;;0.88;;
75311;SDS011;63906;55.686;37.532;2023-12-28T00:55:15;1.45;;;1.00;;
75311;SDS011;63906;55.686;37.532;2023-12-28T01:00:15;1.65;;;1.13;;
75311;SDS011;63906;55.686;37.532;2023-12-28T01:05:16;3.22;;;1.00;;
75311;SDS011;63906;55.686;37.532;2023-12-28T01:10:17;1.88;;;1.17;;
75311;SDS011;63906;55.686;37.532;2023-12-28T01:15:17;2.70;;;1.07;;
75311;SDS011;63906;55.686;37.532;2023-12-28T01:20:20;1.35;;;0.77;;
75311;SDS011;63906;55.686;37.532;2023-12-28T01:25:20;1.07;;;0.80;;
75311;SDS011;63906;55.686;37.532;2023-12-28T01:30:21;2.03;;;1.00;;
75311;SDS011;63906;55.686;37.532;2023-12-28T01:35:21;2.55;;;1.15;;
75311;SDS011;63906;55.686;37.532;2023-12-28T01:40:22;2.88;;;1.20;;
75311;SDS011;63906;55.686;37.532;2023-12-28T01:45:23;2.08;;;1.00;;
75311;SDS011;63906;55.686;37.532;2023-12-28T01:50:23;1.73;;;1.03;;
75311;SDS011;63906;55.686;37.532;2023-12-28T01:55:26;3.08;;;1.25;;
75311;SDS011;63906;55.686;37.532;2023-12-28T02:00:28;1.42;;;0.85;;
75311;SDS011;63906;55.686;37.532;2023-12-28T02:05:28;2.17;;;1.10;;
75311;SDS011;63906;55.686;37.532;2023-12-28T02:10:30;2.70;;;1.35;;
75311;SDS011;63906;55.686;37.532;2023-12-28T02:15:30;1.98;;;1.10;;
75311;SDS011;63906;55.686;37.532;2023-12-28T02:20:31;2.67;;;1.30;;
75311;SDS011;63906;55.686;37.532;2023-12-28T02:25:34;1.92;;;1.42;;
75311;SDS011;63906;55.686;37.532;2023-12-28T02:30:34;2.80;;;1.10;;
75311;SDS011;63906;55.686;37.532;2023-12-28T02:40:48;2.28;;;1.13;;
75311;SDS011;63906;55.686;37.532;2023-12-28T02:45:49;2.25;;;1.40;;
75311;SDS011;63906;55.686;37.532;2023-12-28T02:50:49;1.90;;;1.17;;
75311;SDS011;63906;55.686;37.532;2023-12-28T02:55:50;2.20;;;1.30;;
75311;SDS011;63906;55.686;37.532;2023-12-28T03:00:50;3.00;;;1.20;;
75311;SDS011;63906;55.686;37.532;2023-12-28T03:05:51;1.57;;;1.17;;
75311;SDS011;63906;55.686;37.532;2023-12-28T03:10:51;3.10;;;1.73;;
75311;SDS011;63906;55.686;37.532;2023-12-28T03:15:53;3.97;;;1.35;;
75311;SDS011;63906;55.686;37.532;2023-12-28T03:20:53;2.78;;;1.23;;
75311;SDS011;63906;55.686;37.532;2023-12-28T03:25:54;3.20;;;1.42;;
75311;SDS011;63906;55.686;37.532;2023-12-28T03:30:55;3.13;;;1.43;;
75311;SDS011;63906;55.686;37.532;2023-12-28T03:35:55;2.40;;;1.42;;
75311;SDS011;63906;55.686;37.532;2023-12-28T03:40:57;3.90;;;1.38;;
75311;SDS011;63906;55.686;37.532;2023-12-28T03:45:58;2.33;;;1.20;;
75311;SDS011;63906;55.686;37.532;2023-12-28T03:50:58;3.00;;;1.40;;
75311;SDS011;63906;55.686;37.532;2023-12-28T03:55:59;1.70;;;0.93;;
75311;SDS011;63906;55.686;37.532;2023-12-28T04:00:59;1.48;;;1.08;;
75311;SDS011;63906;55.686;37.532;2023-12-28T04:06:00;1.37;;;0.87;;
75311;SDS011;63906;55.686;37.532;2023-12-28T04:11:00;1.83;;;1.10;;
75311;SDS011;63906;55.686;37.532;2023-12-28T04:16:01;2.10;;;1.10;;
75311;SDS011;63906;55.686;37.532;2023-12-28T04:21:01;2.03;;;1.10;;
75311;SDS011;63906;55.686;37.532;2023-12-28T04:26:02;3.00;;;1.30;;
75311;SDS011;63906;55.686;37.532;2023-12-28T04:31:03;1.75;;;1.20;;
75311;SDS011;63906;55.686;37.532;2023-12-28T04:36:05;1.92;;;1.10;;
75311;SDS011;63906;55.686;37.532;2023-12-28T04:41:06;1.27;;;1.08;;
75311;SDS011;63906;55.686;37.532;2023-12-28T04:46:06;1.80;;;1.03;;
75311;SDS011;63906;55.686;37.532;2023-12-28T04:51:06;2.67;;;1.10;;
75311;SDS011;63906;55.686;37.532;2023-12-28T04:56:07;2.30;;;1.20;;
75311;SDS011;63906;55.686;37.532;2023-12-28T05:01:07;2.30;;;1.00;;
75311;SDS011;63906;55.686;37.532;2023-12-28T05:06:08;1.80;;;1.00;;
75311;SDS011;63906;55.686;37.532;2023-12-28T05:11:08;4.03;;;1.10;;
75311;SDS011;63906;55.686;37.532;2023-12-28T05:16:09;1.50;;;1.20;;
75311;SDS011;63906;55.686;37.532;2023-12-28T05:21:09;2.22;;;1.15;;
75311;SDS011;63906;55.686;37.532;2023-12-28T05:26:10;1.90;;;1.40;;
75311;SDS011;63906;55.686;37.532;2023-12-28T05:31:11;1.67;;;1.00;;
75311;SDS011;63906;55.686;37.532;2023-12-28T05:36:15;1.85;;;1.13;;
75311;SDS011;63906;55.686;37.532;2023-12-28T05:41:16;2.28;;;1.17;;
75311;SDS011;63906;55.686;37.532;2023-12-28T05:46:17;2.80;;;1.50;;
75311;SDS011;63906;55.686;37.532;2023-12-28T05:51:18;3.00;;;0.90;;
75311;SDS011;63906;55.686;37.532;2023-12-28T05:56:18;3.22;;;1.23;;
75311;SDS011;63906;55.686;37.532;2023-12-28T06:01:19;2.63;;;1.33;;
75311;SDS011;63906;55.686;37.532;2023-12-28T06:06:19;1.70;;;1.40;;
75311;SDS011;63906;55.686;37.532;2023-12-28T06:11:20;1.67;;;0.90;;
75311;SDS011;63906;55.686;37.532;2023-12-28T06:16:21;2.27;;;1.30;;
75311;SDS011;63906;55.686;37.532;2023-12-28T06:21:21;2.30;;;1.40;;
75311;SDS011;63906;55.686;37.532;2023-12-28T06:26:22;2.00;;;1.20;;
75311;SDS011;63906;55.686;37.532;2023-12-28T06:31:22;3.13;;;1.40;;
75311;SDS011;63906;55.686;37.532;2023-12-28T06:36:23;3.53;;;1.50;;
75311;SDS011;63906;55.686;37.532;2023-12-28T06:41:24;2.35;;;1.35;;
75311;SDS011;63906;55.686;37.532;2023-12-28T06:46:25;2.25;;;1.40;;
75311;SDS011;63906;55.686;37.532;2023-12-28T06:51:25;1.80;;;0.93;;
75311;SDS011;63906;55.686;37.532;2023-12-28T06:56:26;4.63;;;1.55;;
75311;SDS011;63906;55.686;37.532;2023-12-28T07:01:27;1.98;;;1.00;;
75311;SDS011;63906;55.686;37.532;2023-12-28T07:06:27;1.57;;;0.90;;
75311;SDS011;63906;55.686;37.532;2023-12-28T07:11:28;2.22;;;1.25;;
75311;SDS011;63906;55.686;37.532;2023-12-28T07:16:28;3.00;;;1.30;;
75311;SDS011;63906;55.686;37.532;2023-12-28T07:21:29;1.63;;;0.90;;
75311;SDS011;63906;55.686;37.532;2023-12-28T07:26:29;2.90;;;1.10;;
75311;SDS011;63906;55.686;37.532;2023-12-28T07:31:30;2.13;;;1.30;;
75311;SDS011;63906;55.686;37.532;2023-12-28T07:36:31;4.00;;;1.30;;
75311;SDS011;63906;55.686;37.532;2023-12-28T07:41:32;2.57;;;1.40;;
75311;SDS011;63906;55.686;37.532;2023-12-28T07:46:32;2.25;;;1.10;;
75311;SDS011;63906;55.686;37.532;2023-12-28T07:51:33;2.00;;;1.20;;
75311;SDS011;63906;55.686;37.532;2023-12-28T07:56:34;2.50;;;1.30;;
75311;SDS011;63906;55.686;37.532;2023-12-28T08:01:34;2.07;;;1.13;;
75311;SDS011;63906;55.686;37.532;2023-12-28T08:06:35;2.42;;;1.70;;
75311;SDS011;63906;55.686;37.532;2023-12-28T08:11:36;1.88;;;1.10;;
75311;SDS011;63906;55.686;37.532;2023-12-28T08:16:36;2.07;;;1.23;;
75311;SDS011;63906;55.686;37.532;2023-12-28T08:21:39;2.93;;;1.30;;
75311;SDS011;63906;55.686;37.532;2023-12-28T08:26:39;3.20;;;1.50;;
75311;SDS011;63906;55.686;37.532;2023-12-28T08:31:40;2.77;;;1.53;;
75311;SDS011;63906;55.686;37.532;2023-12-28T08:36:41;2.35;;;1.27;;
75311;SDS011;63906;55.686;37.532;2023-12-28T08:41:41;2.63;;;1.63;;
75311;SDS011;63906;55.686;37.532;2023-12-28T08:46:42;2.93;;;1.60;;
75311;SDS011;63906;55.686;37.532;2023-12-28T08:51:42;3.27;;;1.70;;
75311;SDS011;63906;55.686;37.532;2023-12-28T08:56:43;3.97;;;1.80;;
75311;SDS011;63906;55.686;37.532;2023-12-28T09:01:43;2.90;;;1.63;;
75311;SDS011;63906;55.686;37.532;2023-12-28T09:06:44;4.97;;;2.08;;
75311;SDS011;63906;55.686;37.532;2023-12-28T09:11:44;4.17;;;1.90;;
75311;SDS011;63906;55.686;37.532;2023-12-28T09:16:46;5.18;;;1.92;;
75311;SDS011;63906;55.686;37.532;2023-12-28T09:21:47;3.45;;;1.58;;
75311;SDS011;63906;55.686;37.532;2023-12-28T09:26:47;3.73;;;1.87;;
75311;SDS011;63906;55.686;37.532;2023-12-28T09:31:48;3.58;;;1.90;;
75311;SDS011;63906;55.686;37.532;2023-12-28T09:36:48;3.70;;;2.03;;
75311;SDS011;63906;55.686;37.532;2023-12-28T09:41:49;3.57;;;1.90;;
75311;SDS011;63906;55.686;37.532;2023-12-28T09:47:01;6.03;;;2.38;;
75311;SDS011;63906;55.686;37.532;2023-12-28T09:52:02;3.80;;;1.92;;
75311;SDS011;63906;55.686;37.532;2023-12-28T09:57:03;3.15;;;2.08;;
75311;SDS011;63906;55.686;37.532;2023-12-28T10:02:04;2.95;;;1.70;;
75311;SDS011;63906;55.686;37.532;2023-12-28T10:07:04;4.57;;;2.20;;
75311;SDS011;63906;55.686;37.532;2023-12-28T10:12:05;3.77;;;1.67;;
75311;SDS011;63906;55.686;37.532;2023-12-28T10:17:06;3.17;;;1.75;;
75311;SDS011;63906;55.686;37.532;2023-12-28T10:22:07;2.80;;;1.67;;
75311;SDS011;63906;55.686;37.532;2023-12-28T10:27:07;2.37;;;1.37;;
75311;SDS011;63906;55.686;37.532;2023-12-28T10:32:08;3.05;;;1.38;;
75311;SDS011;63906;55.686;37.532;2023-12-28T10:37:08;2.83;;;1.00;;
75311;SDS011;63906;55.686;37.532;2023-12-28T10:42:10;1.95;;;1.35;;
75311;SDS011;63906;55.686;37.532;2023-12-28T10:47:15;2.97;;;1.55;;
75311;SDS011;63906;55.686;37.532;2023-12-28T10:52:19;2.85;;;1.50;;
75311;SDS011;63906;55.686;37.532;2023-12-28T10:57:23;2.83;;;1.55;;
75311;SDS011;63906;55.686;37.532;2023-12-28T11:02:28;3.33;;;1.40;;
75311;SDS011;63906;55.686;37.532;2023-12-28T11:07:34;1.98;;;1.35;;
75311;SDS011;63906;55.686;37.532;2023-12-28T11:12:37;2.97;;;1.33;;
75311;SDS011;63906;55.686;37.532;2023-12-28T11:17:38;3.50;;;1.67;;
75311;SDS011;63906;55.686;37.532;2023-12-28T11:22:40;3.70;;;1.67;;
75311;SDS011;63906;55.686;37.532;2023-12-28T11:27:41;8.60;;;1.90;;
75311;SDS011;63906;55.686;37.532;2023-12-28T11:32:42;4.45;;;2.30;;
75311;SDS011;63906;55.686;37.532;2023-12-28T11:37:44;3.53;;;2.00;;
75311;SDS011;63906;55.686;37.532;2023-12-28T11:42:49;3.67;;;2.10;;
75311;SDS011;63906;55.686;37.532;2023-12-28T11:48:00;3.63;;;1.67;;
75311;SDS011;63906;55.686;37.532;2023-12-28T11:53:01;3.75;;;1.80;;
75311;SDS011;63906;55.686;37.532;2023-12-28T11:58:01;2.92;;;1.45;;
75311;SDS011;63906;55.686;37.532;2023-12-28T12:03:02;3.05;;;1.30;;
75311;SDS011;63906;55.686;37.532;2023-12-28T12:08:03;2.70;;;1.08;;
75311;SDS011;63906;55.686;37.532;2023-12-28T12:13:04;2.47;;;0.80;;
75311;SDS011;63906;55.686;37.532;2023-12-28T12:18:05;2.72;;;1.25;;
75311;SDS011;63906;55.686;37.532;2023-12-28T12:23:06;2.10;;;1.33;;
75311;SDS011;63906;55.686;37.532;2023-12-28T12:28:06;2.87;;;1.50;;
75311;SDS011;63906;55.686;37.532;2023-12-28T12:33:07;1.90;;;1.15;;
75311;SDS011;63906;55.686;37.532;2023-12-28T12:38:09;2.92;;;1.05;;
75311;SDS011;63906;55.686;37.532;2023-12-28T12:43:11;1.80;;;0.93;;
75311;SDS011;63906;55.686;37.532;2023-12-28T12:48:12;2.03;;;1.42;;
75311;SDS011;63906;55.686;37.532;2023-12-28T12:53:12;1.93;;;1.00;;
75311;SDS011;63906;55.686;37.532;2023-12-28T12:58:13;1.20;;;0.70;;
75311;SDS011;63906;55.686;37.532;2023-12-28T13:03:13;1.40;;;0.98;;
75311;SDS011;63906;55.686;37.532;2023-12-28T13:08:14;2.73;;;0.93;;
75311;SDS011;63906;55.686;37.532;2023-12-28T13:13:14;1.47;;;1.00;;
75311;SDS011;63906;55.686;37.532;2023-12-28T13:18:15;2.28;;;1.05;;
75311;SDS011;63906;55.686;37.532;2023-12-28T13:23:18;2.88;;;1.50;;
75311;SDS011;63906;55.686;37.532;2023-12-28T13:28:21;2.95;;;1.10;;
75311;SDS011;63906;55.686;37.532;2023-12-28T13:33:22;3.60;;;1.10;;
75311;SDS011;63906;55.686;37.532;2023-12-28T13:38:24;2.05;;;1.27;;
75311;SDS011;63906;55.686;37.532;2023-12-28T13:43:24;4.27;;;1.60;;
75311;SDS011;63906;55.686;37.532;2023-12-28T13:48:25;1.93;;;1.00;;
75311;SDS011;63906;55.686;37.532;2023-12-28T13:53:26;2.20;;;1.10;;
75311;SDS011;63906;55.686;37.532;2023-12-28T13:58:26;3.40;;;1.33;;
75311;SDS011;63906;55.686;37.532;2023-12-28T14:03:28;3.63;;;1.65;;
75311;SDS011;63906;55.686;37.532;2023-12-28T14:08:28;1.90;;;1.00;;
75311;SDS011;63906;55.686;37.532;2023-12-28T14:13:29;1.70;;;1.10;;
75311;SDS011;63906;55.686;37.532;2023-12-28T14:18:31;1.98;;;1.13;;
75311;SDS011;63906;55.686;37.532;2023-12-28T14:23:31;3.53;;;1.80;;
75311;SDS011;63906;55.686;37.532;2023-12-28T14:28:32;2.70;;;1.30;;
75311;SDS011;63906;55.686;37.532;2023-12-28T14:33:34;3.47;;;1.55;;
75311;SDS011;63906;55.686;37.532;2023-12-28T14:38:34;3.85;;;1.38;;
75311;SDS011;63906;55.686;37.532;2023-12-28T14:43:35;2.33;;;1.10;;
75311;SDS011;63906;55.686;37.532;2023-12-28T14:48:35;2.60;;;1.60;;
75311;SDS011;63906;55.686;37.532;2023-12-28T14:53:36;2.25;;;1.63;;
75311;SDS011;63906;55.686;37.532;2023-12-28T14:58:59;3.28;;;1.83;;
75311;SDS011;63906;55.686;37.532;2023-12-28T15:09:00;4.33;;;1.80;;
75311;SDS011;63906;55.686;37.532;2023-12-28T15:14:01;4.18;;;1.42;;
75311;SDS011;63906;55.686;37.532;2023-12-28T15:19:01;4.03;;;1.65;;
75311;SDS011;63906;55.686;37.532;2023-12-28T15:24:05;3.00;;;1.70;;
75311;SDS011;63906;55.686;37.532;2023-12-28T15:29:11;2.67;;;1.70;;
75311;SDS011;63906;55.686;37.532;2023-12-28T15:34:12;3.45;;;1.58;;
75311;SDS011;63906;55.686;37.532;2023-12-28T15:44:16;3.63;;;1.80;;
75311;SDS011;63906;55.686;37.532;2023-12-28T15:49:16;3.63;;;1.30;;
75311;SDS011;63906;55.686;37.532;2023-12-28T15:54:17;3.77;;;1.70;;
75311;SDS011;63906;55.686;37.532;2023-12-28T15:59:23;4.10;;;1.90;;
75311;SDS011;63906;55.686;37.532;2023-12-28T16:04:29;5.68;;;2.58;;
75311;SDS011;63906;55.686;37.532;2023-12-28T16:09:30;3.63;;;2.07;;
75311;SDS011;63906;55.686;37.532;2023-12-28T16:14:30;3.50;;;1.73;;
75311;SDS011;63906;55.686;37.532;2023-12-28T16:19:31;4.60;;;2.00;;
75311;SDS011;63906;55.686;37.532;2023-12-28T16:24:31;4.75;;;2.50;;
75311;SDS011;63906;55.686;37.532;2023-12-28T16:29:32;4.72;;;2.20;;
75311;SDS011;63906;55.686;37.532;2023-12-28T16:34:36;6.00;;;2.55;;
75311;SDS011;63906;55.686;37.532;2023-12-28T16:39:36;4.18;;;2.20;;
75311;SDS011;63906;55.686;37.532;2023-12-28T16:44:38;4.27;;;2.40;;
75311;SDS011;63906;55.686;37.532;2023-12-28T16:49:41;4.75;;;2.15;;
75311;SDS011;63906;55.686;37.532;2023-12-28T16:54:41;3.58;;;1.55;;
75311;SDS011;63906;55.686;37.532;2023-12-28T16:59:42;3.65;;;1.58;;
75311;SDS011;63906;55.686;37.532;2023-12-28T17:04:43;3.03;;;1.58;;
75311;SDS011;63906;55.686;37.532;2023-12-28T17:09:46;2.58;;;1.55;;
75311;SDS011;63906;55.686;37.532;2023-12-28T17:15:02;3.60;;;1.70;;
75311;SDS011;63906;55.686;37.532;2023-12-28T17:20:04;3.30;;;1.55;;
75311;SDS011;63906;55.686;37.532;2023-12-28T17:30:45;1.88;;;1.33;;
75311;SDS011;63906;55.686;37.532;2023-12-28T17:35:46;2.92;;;1.20;;
75311;SDS011;63906;55.686;37.532;2023-12-28T17:40:47;1.25;;;0.77;;
75311;SDS011;63906;55.686;37.532;2023-12-28T17:50:51;1.40;;;0.82;;
75311;SDS011;63906;55.686;37.532;2023-12-28T17:55:54;1.88;;;1.15;;
75311;SDS011;63906;55.686;37.532;2023-12-28T18:00:55;1.08;;;0.70;;
75311;SDS011;63906;55.686;37.532;2023-12-28T18:05:55;2.15;;;0.90;;
75311;SDS011;63906;55.686;37.532;2023-12-28T18:10:56;2.43;;;1.10;;
75311;SDS011;63906;55.686;37.532;2023-12-28T18:15:57;2.47;;;1.50;;
75311;SDS011;63906;55.686;37.532;2023-12-28T18:20:57;1.50;;;1.00;;
75311;SDS011;63906;55.686;37.532;2023-12-28T18:25:58;1.50;;;0.80;;
75311;SDS011;63906;55.686;37.532;2023-12-28T18:30:58;1.77;;;0.90;;
75311;SDS011;63906;55.686;37.532;2023-12-28T18:36:02;1.38;;;1.05;;
75311;SDS011;63906;55.686;37.532;2023-12-28T18:46:03;2.73;;;1.53;;
75311;SDS011;63906;55.686;37.532;2023-12-28T18:51:04;2.20;;;1.10;;
75311;SDS011;63906;55.686;37.532;2023-12-28T18:56:05;2.53;;;1.50;;
75311;SDS011;63906;55.686;37.532;2023-12-28T19:01:06;2.88;;;1.23;;
75311;SDS011;63906;55.686;37.532;2023-12-28T19:06:06;2.27;;;1.23;;
75311;SDS011;63906;55.686;37.532;2023-12-28T19:11:10;2.30;;;1.20;;
75311;SDS011;63906;55.686;37.532;2023-12-28T19:16:17;2.00;;;1.20;;
75311;SDS011;63906;55.686;37.532;2023-12-28T19:21:19;2.70;;;1.20;;
75311;SDS011;63906;55.686;37.532;2023-12-28T19:26:20;2.70;;;1.45;;
75311;SDS011;63906;55.686;37.532;2023-12-28T19:31:41;1.80;;;0.85;;
75311;SDS011;63906;55.686;37.532;2023-12-28T19:36:41;2.03;;;1.27;;
75311;SDS011;63906;55.686;37.532;2023-12-28T19:41:42;2.07;;;1.10;;
75311;SDS011;63906;55.686;37.532;2023-12-28T19:46:42;2.60;;;1.07;;
75311;SDS011;63906;55.686;37.532;2023-12-28T19:51:43;2.20;;;1.00;;
75311;SDS011;63906;55.686;37.532;2023-12-28T19:56:43;2.90;;;1.20;;
75311;SDS011;63906;55.686;37.532;2023-12-28T20:01:46;1.73;;;0.90;;
75311;SDS011;63906;55.686;37.532;2023-12-28T20:06:47;2.45;;;1.10;;
75311;SDS011;63906;55.686;37.532;2023-12-28T20:11:53;2.03;;;1.02;;
75311;SDS011;63906;55.686;37.532;2023-12-28T20:16:54;3.20;;;1.40;;
75311;SDS011;63906;55.686;37.532;2023-12-28T20:21:54;2.43;;;1.27;;
75311;SDS011;63906;55.686;37.532;2023-12-28T20:26:55;2.57;;;1.37;;
75311;SDS011;63906;55.686;37.532;2023-12-28T20:31:58;1.80;;;1.02;;
75311;SDS011;63906;55.686;37.532;2023-12-28T20:36:59;3.03;;;1.38;;
75311;SDS011;63906;55.686;37.532;2023-12-28T20:41:59;1.77;;;1.00;;
75311;SDS011;63906;55.686;37.532;2023-12-28T20:47:00;3.47;;;1.40;;
75311;SDS011;63906;55.686;37.532;2023-12-28T20:52:03;2.28;;;1.40;;
75311;SDS011;63906;55.686;37.532;2023-12-28T20:57:04;2.25;;;1.30;;
75311;SDS011;63906;55.686;37.532;2023-12-28T21:02:04;2.77;;;1.30;;
75311;SDS011;63906;55.686;37.532;2023-12-28T21:07:05;2.25;;;1.15;;
75311;SDS011;63906;55.686;37.532;2023-12-28T21:17:51;2.58;;;1.20;;
75311;SDS011;63906;55.686;37.532;2023-12-28T21:22:51;2.40;;;0.97;;
75311;SDS011;63906;55.686;37.532;2023-12-28T21:27:52;2.53;;;1.38;;
75311;SDS011;63906;55.686;37.532;2023-12-28T21:32:53;1.90;;;1.13;;
75311;SDS011;63906;55.686;37.532;2023-12-28T21:37:54;2.13;;;1.05;;
75311;SDS011;63906;55.686;37.532;2023-12-28T21:42:55;1.48;;;0.82;;
75311;SDS011;63906;55.686;37.532;2023-12-28T21:47:56;2.15;;;1.13;;
75311;SDS011;63906;55.686;37.532;2023-12-28T21:52:56;3.08;;;1.02;;
75311;SDS011;63906;55.686;37.532;2023-12-28T21:57:57;2.78;;;1.40;;
75311;SDS011;63906;55.686;37.532;2023-12-28T22:02:58;2.65;;;1.45;;
75311;SDS011;63906;55.686;37.532;2023-12-28T22:07:59;3.00;;;1.40;;
75311;SDS011;63906;55.686;37.532;2023-12-28T22:13:02;1.95;;;0.82;;
75311;SDS011;63906;55.686;37.532;2023-12-28T22:18:02;1.63;;;1.05;;
75311;SDS011;63906;55.686;37.532;2023-12-28T22:23:03;2.22;;;1.23;;
75311;SDS011;63906;55.686;37.532;2023-12-28T22:28:04;2.22;;;1.35;;
75311;SDS011;63906;55.686;37.532;2023-12-28T22:33:04;2.45;;;1.45;;
75311;SDS011;63906;55.686;37.532;2023-12-28T22:38:05;4.27;;;1.13;;
75311;SDS011;63906;55.686;37.532;2023-12-28T22:43:05;2.30;;;1.03;;
75311;SDS011;63906;55.686;37.532;2023-12-28T22:48:06;1.67;;;0.90;;
75311;SDS011;63906;55.686;37.532;2023-12-28T22:53:06;3.60;;;1.30;;
75311;SDS011;63906;55.686;37.532;2023-12-28T22:58:07;2.50;;;1.03;;
75311;SDS011;63906;55.686;37.532;2023-12-28T23:03:08;1.97;;;1.03;;
75311;SDS011;63906;55.686;37.532;2023-12-28T23:08:08;1.75;;;0.80;;
75311;SDS011;63906;55.686;37.532;2023-12-28T23:13:09;2.37;;;1.00;;
75311;SDS011;63906;55.686;37.532;2023-12-28T23:18:09;2.53;;;1.10;;
75311;SDS011;63906;55.686;37.532;2023-12-28T23:23:11;1.20;;;0.75;;
75311;SDS011;63906;55.686;37.532;2023-12-28T23:28:11;2.35;;;1.20;;
75311;SDS011;63906;55.686;37.532;2023-12-28T23:33:12;2.47;;;1.00;;
75311;SDS011;63906;55.686;37.532;2023-12-28T23:38:13;3.97;;;1.13;;
75311;SDS011;63906;55.686;37.532;2023-12-28T23:43:14;2.23;;;0.97;;
75311;SDS011;63906;55.686;37.532;2023-12-28T23:48:14;2.17;;;1.40;;
75311;SDS011;63906;55.686;37.532;2023-12-28T23:53:15;2.43;;;1.20;;
75311;SDS011;63906;55.686;37.532;2023-12-28T23:58:15;1.57;;;0.90;;
